Time;durP1;ratioP1;P1;durP2;ratioP2;P2;SDS_P1;SDS_P2;PMS_P1;PMS_P2;Temp;Humidity;BMP_temperature;BMP_pressure;BME280_temperature;BME280_humidity;BME280_pressure;Samples;Min_cycle;Max_cycle;Signal;HPM_P1;HPM_P2
2021/07/23 00:01:55;;;;;;;11.83;2.17;;;;;;;;;;4869355;28;20295;-75
2021/07/23 00:04:17;;;;;;;12.80;2.33;;;;;;;;;;4876370;28;20243;-75
2021/07/23 00:06:40;;;;;;;12.93;2.23;;;;;;;;;;4876968;28;20658;-74
2021/07/23 00:09:04;;;;;;;20.20;3.33;;;12.50;42.50;;;;;;4875953;28;20327;-74
2021/07/23 00:11:27;;;;;;;12.03;2.20;;;;;;;;;;4869474;28;20214;-73
2021/07/23 00:13:50;;;;;;;13.33;2.43;;;;;;;;;;4876842;28;20239;-75
2021/07/23 00:16:12;;;;;;;16.20;2.90;;;;;;;;;;4858606;28;20198;-73
2021/07/23 00:18:35;;;;;;;26.93;4.40;;;;;;;;;;4876124;28;20592;-74
2021/07/23 00:20:58;;;;;;;15.90;2.87;;;;;;;;;;4874681;28;20227;-73
2021/07/23 00:23:21;;;;;;;10.77;1.97;;;;;;;;;;4858124;28;20329;-74
2021/07/23 00:25:44;;;;;;;12.70;2.23;;;12.80;43.20;;;;;;4863091;28;20206;-74
2021/07/23 00:28:07;;;;;;;18.47;3.20;;;;;;;;;;4876809;28;20185;-74
2021/07/23 00:30:30;;;;;;;9.90;1.87;;;;;;;;;;4858323;28;20190;-74
2021/07/23 00:32:53;;;;;;;14.70;2.57;;;;;;;;;;4876008;28;20239;-73
2021/07/23 00:35:16;;;;;;;12.53;2.27;;;;;;;;;;4876195;28;20712;-77
2021/07/23 00:37:38;;;;;;;9.77;1.77;;;;;;;;;;4858685;28;20202;-74
2021/07/23 00:40:01;;;;;;;15.40;2.63;;;;;;;;;;4874028;28;20197;-75
2021/07/23 00:42:36;;;;;;;16.63;2.93;;;13.20;44.00;;;;;;4867821;28;20670;-73
2021/07/23 00:44:59;;;;;;;12.70;2.20;;;;;;;;;;4876447;28;20251;-73
2021/07/23 00:47:22;;;;;;;9.50;1.70;;;;;;;;;;4875280;28;20205;-73
2021/07/23 00:49:45;;;;;;;10.60;2.03;;;;;;;;;;4876143;28;20185;-74
2021/07/23 00:52:08;;;;;;;17.50;3.03;;;;;;;;;;4875083;28;20205;-73
2021/07/23 00:54:31;;;;;;;12.60;2.33;;;;;;;;;;4874175;28;20270;-74
2021/07/23 00:56:55;;;;;;;9.83;1.83;;;;;;;;;;4874586;28;20406;-74
2021/07/23 00:59:19;;;;;;;9.60;1.80;;;13.50;46.00;;;;;;4874645;28;20599;-73
2021/07/23 01:01:44;;;;;;;14.43;2.77;;;;;;;;;;4861178;28;20190;-73
2021/07/23 01:04:07;;;;;;;23.13;3.97;;;;;;;;;;4873263;28;20174;-74
2021/07/23 01:06:31;;;;;;;12.70;2.37;;;13.60;46.50;;;;;;4857202;28;21018;-74
2021/07/23 01:08:54;;;;;;;15.30;2.70;;;;;;;;;;4857850;28;20209;-74
2021/07/23 01:11:19;;;;;;;11.40;2.13;;;;;;;;;;4873992;28;20254;-73
2021/07/23 01:13:53;;;;;;;12.20;2.17;;;;;;;;;;4875008;28;20248;-72
2021/07/23 01:16:17;;;;;;;17.93;3.20;;;13.70;46.00;;;;;;4856148;28;20875;-74
2021/07/23 01:18:42;;;;;;;19.33;3.47;;;;;;;;;;4857541;28;20260;-72
2021/07/23 01:21:04;;;;;;;16.13;2.63;;;;;;;;;;4873948;28;20607;-72
2021/07/23 01:23:34;;;;;;;13.53;2.43;;;13.70;44.90;;;;;;4850445;28;20269;-74
2021/07/23 01:26:03;;;;;;;17.13;2.87;;;13.80;44.90;;;;;;4863185;28;20592;-74
2021/07/23 01:28:29;;;;;;;25.87;4.17;;;13.90;45.10;;;;;;4863305;28;20235;-74
2021/07/23 01:31:01;;;;;;;10.70;1.90;;;13.90;45.20;;;;;;4873746;28;20791;-74
2021/07/23 01:33:30;;;;;;;14.00;2.53;;;;;;;;;;4857757;28;20729;-74
2021/07/23 01:35:54;;;;;;;11.70;1.93;;;13.90;45.40;;;;;;4875443;28;20727;-73
2021/07/23 01:38:18;;;;;;;21.77;3.67;;;14.00;45.30;;;;;;4872489;28;20205;-75
2021/07/23 01:40:42;;;;;;;14.27;2.37;;;14.00;45.70;;;;;;4864784;28;20209;-74
2021/07/23 01:43:06;;;;;;;18.03;2.97;;;;;;;;;;4875329;28;20209;-74
2021/07/23 01:45:29;;;;;;;13.23;2.13;;;;;;;;;;4874256;28;20194;-74
2021/07/23 01:48:17;;;;;;;15.97;2.60;;;;;;;;;;4874165;28;20259;-74
2021/07/23 01:50:41;;;;;;;11.17;2.03;;;;;;;;;;4860813;28;20194;-74
2021/07/23 01:53:04;;;;;;;16.00;2.77;;;;;;;;;;4875686;28;20267;-74
2021/07/23 01:55:44;;;;;;;10.40;1.80;;;14.10;47.80;;;;;;4857704;28;20816;-74
2021/07/23 01:58:07;;;;;;;17.00;3.00;;;;;;;;;;4874965;28;20242;-74
2021/07/23 02:00:30;;;;;;;28.37;4.57;;;;;;;;;;4872739;28;20205;-73
2021/07/23 02:02:53;;;;;;;11.80;2.10;;;;;;;;;;4853897;28;20229;-75
2021/07/23 02:05:26;;;;;;;13.83;2.37;;;;;;;;;;4872883;28;20239;-74
2021/07/23 02:07:50;;;;;;;13.93;2.43;;;;;;;;;;4865107;28;20202;-74
2021/07/23 02:10:16;;;;;;;16.70;2.83;;;;;;;;;;4871040;28;20583;-74
2021/07/23 02:12:42;;;;;;;11.50;2.00;;;14.20;48.60;;;;;;4854496;28;20198;-74
2021/07/23 02:15:18;;;;;;;14.00;2.40;;;;;;;;;;4855519;28;20774;-74
2021/07/23 02:17:43;;;;;;;16.90;2.47;;;;;;;;;;4873498;28;20193;-74
2021/07/23 02:20:14;;;;;;;22.97;3.67;;;;;;;;;;4871912;28;20201;-74
2021/07/23 02:22:38;;;;;;;13.00;2.07;;;;;;;;;;4856383;28;20774;-74
2021/07/23 02:25:03;;;;;;;18.27;2.77;;;;;;;;;;4873484;28;20194;-76
2021/07/23 02:27:31;;;;;;;11.50;1.90;;;;;;;;;;4840298;28;20186;-74
2021/07/23 02:29:56;;;;;;;17.80;2.80;;;14.20;49.00;;;;;;4871522;28;20201;-74
2021/07/23 02:32:21;;;;;;;14.30;2.30;;;;;;;;;;4873793;28;20181;-74
2021/07/23 02:34:44;;;;;;;12.60;2.03;;;;;;;;;;4854807;28;20198;-74
2021/07/23 02:37:08;;;;;;;20.33;3.13;;;;;;;;;;4846818;28;20683;-74
2021/07/23 02:39:32;;;;;;;12.80;2.13;;;;;;;;;;4855884;28;20647;-74
2021/07/23 02:41:58;;;;;;;13.93;2.23;;;;;;;;;;4872692;28;20255;-74
2021/07/23 02:44:22;;;;;;;13.40;2.03;;;;;;;;;;4874738;28;20263;-80
2021/07/23 02:46:46;;;;;;;13.83;2.17;;;14.20;49.00;;;;;;4875358;28;20238;-74
2021/07/23 02:49:13;;;;;;;18.87;3.00;;;;;;;;;;4854921;28;20753;-74
2021/07/23 02:51:36;;;;;;;12.50;1.93;;;;;;;;;;4874701;28;20193;-75
2021/07/23 02:54:02;;;;;;;20.87;3.17;;;;;;;;;;4871713;28;20679;-76
2021/07/23 02:56:26;;;;;;;13.87;2.33;;;;;;;;;;4856501;28;20256;-76
2021/07/23 02:58:50;;;;;;;13.13;2.33;;;;;;;;;;4872679;28;20202;-74
2021/07/23 03:01:16;;;;;;;21.87;3.83;;;;;;;;;;4853000;28;20252;-74
2021/07/23 03:03:39;;;;;;;11.53;2.17;;;14.30;50.40;;;;;;4855623;28;20256;-74
2021/07/23 03:06:03;;;;;;;22.33;3.67;;;;;;;;;;4844864;28;20192;-76
2021/07/23 03:08:28;;;;;;;23.70;3.73;;;;;;;;;;4854316;28;20256;-74
2021/07/23 03:10:53;;;;;;;15.53;2.50;;;;;;;;;;4874328;28;20546;-74
2021/07/23 03:13:18;;;;;;;10.60;1.90;;;;;;;;;;4855797;28;20591;-73
2021/07/23 03:15:41;;;;;;;12.27;2.10;;;;;;;;;;4853992;28;20246;-74
2021/07/23 03:18:05;;;;;;;17.00;2.83;;;;;;;;;;4864140;28;20224;-74
2021/07/23 03:20:31;;;;;;;11.27;2.00;;;14.60;52.60;;;;;;4853121;28;20567;-74
2021/07/23 03:22:54;;;;;;;13.13;2.07;;;;;;;;;;4856688;28;20198;-73
2021/07/23 03:25:34;;;;;;;13.10;2.27;;;;;;;;;;4867425;28;20201;-73
2021/07/23 03:28:01;;;;;;;15.77;2.53;;;;;;;;;;4873115;28;20213;-74
2021/07/23 03:30:34;;;;;;;12.90;2.20;;;;;;;;;;4858729;28;20201;-73
2021/07/23 03:32:59;;;;;;;10.13;1.73;;;;;;;;;;4876857;28;20255;-78
2021/07/23 03:35:22;;;;;;;13.77;2.23;;;;;;;;;;4876370;28;20537;-73
2021/07/23 03:37:47;;;;;;;11.30;1.87;;;14.70;53.80;;;;;;4857158;28;20202;-74
2021/07/23 03:40:24;;;;;;;13.33;2.23;;;;;;;;;;4851179;28;20193;-73
2021/07/23 03:42:49;;;;;;;13.17;2.10;;;;;;;;;;4877675;28;20189;-74
2021/07/23 03:45:19;;;;;;;19.30;3.13;;;14.80;52.50;;;;;;4876568;28;20218;-74
2021/07/23 03:47:49;;;;;;;11.17;1.83;;;;;;;;;;4876865;28;20215;-73
2021/07/23 03:50:13;;;;;;;18.03;2.87;;;;;;;;;;4875636;28;20724;-74
2021/07/23 03:52:47;;;;;;;13.93;2.17;;;14.90;52.40;;;;;;4852366;28;20214;-74
2021/07/23 03:55:28;;;;;;;10.50;1.70;;;;;;;;;;4870646;28;20235;-74
2021/07/23 03:57:52;;;;;;;14.40;2.30;;;;;;;;;;4856247;28;20201;-73
2021/07/23 04:00:16;;;;;;;21.27;3.23;;;15.60;52.40;;;;;;4857357;28;20619;-74
2021/07/23 04:02:49;;;;;;;16.40;2.50;;;15.00;54.10;;;;;;4867625;28;20221;-73
2021/07/23 04:05:12;;;;;;;16.70;2.77;;;;;;;;;;4877583;28;20613;-79
2021/07/23 04:07:35;;;;;;;11.67;1.87;;;;;;;;;;4867520;28;20235;-78
2021/07/23 04:10:01;;;;;;;8.93;1.50;;;15.30;57.10;;;;;;4873731;28;20197;-76
2021/07/23 04:12:44;;;;;;;12.50;2.07;;;;;;;;;;4856950;28;20186;-73
2021/07/23 04:15:27;;;;;;;8.53;1.40;;;;;;;;;;4862535;28;20178;-74
2021/07/23 04:18:25;;;;;;;23.00;3.57;;;;;;;;;;4876061;28;20177;-74
2021/07/23 04:21:24;;;;;;;12.57;2.00;;;;;;;;;;4859310;28;20623;-77
2021/07/23 04:24:08;;;;;;;16.20;2.57;;;;;;;;;;4876210;28;20212;-74
2021/07/23 04:26:53;;;;;;;13.30;2.20;;;15.50;59.60;;;;;;4856929;28;20188;-74
2021/07/23 04:29:36;;;;;;;15.30;2.47;;;;;;;;;;4854942;28;20172;-74
2021/07/23 04:32:19;;;;;;;13.90;2.23;;;;;;;;;;4876041;28;20557;-75
2021/07/23 04:35:02;;;;;;;18.00;2.77;;;;;;;;;;4875210;28;20173;-74
2021/07/23 04:37:46;;;;;;;10.73;1.80;;;;;;;;;;4857451;28;20185;-74
2021/07/23 04:41:01;;;;;;;20.47;3.17;;;;;;;;;;4874322;28;20195;-74
2021/07/23 04:43:51;;;;;;;11.93;1.90;;;16.00;61.70;;;;;;4876915;28;20197;-75
2021/07/23 04:46:14;;;;;;;18.37;2.97;;;;;;;;;;4858909;28;20202;-74
2021/07/23 04:48:37;;;;;;;27.50;4.33;;;;;;;;;;4855446;28;20620;-75
2021/07/23 04:51:20;;;;;;;18.07;2.87;;;;;;;;;;4858596;28;20202;-74
2021/07/23 04:54:06;;;;;;;19.47;3.03;;;;;;;;;;4830401;28;20682;-78
2021/07/23 04:57:01;;;;;;;17.77;2.67;;;;;;;;;;4822900;28;20198;-74
2021/07/23 04:59:27;;;;;;;13.10;2.03;;;16.50;80.90;;;;;;4848977;28;20190;-74
2021/07/23 05:01:50;;;;;;;13.50;2.03;;;;;;;;;;4853423;28;20750;-74
2021/07/23 05:04:13;;;;;;;22.37;3.30;;;16.70;81.60;;;;;;4855141;28;20214;-75
2021/07/23 05:06:36;;;;;;;17.93;2.67;;;;;;;;;;4855177;28;20209;-73
2021/07/23 05:08:59;;;;;;;10.67;1.60;;;;;;;;;;4855247;28;20289;-76
2021/07/23 05:11:22;;;;;;;14.90;2.23;;;;;;;;;;4838311;28;20199;-74
2021/07/23 05:13:51;;;;;;;12.00;1.73;;;;;;;;;;4838170;28;20651;-75
2021/07/23 05:16:14;;;;;;;18.40;2.60;;;17.30;71.70;;;;;;4856798;28;20182;-74
2021/07/23 05:18:39;;;;;;;35.30;5.00;;;17.40;64.90;;;;;;4838354;28;20206;-74
2021/07/23 05:21:02;;;;;;;17.17;2.50;;;;;;;;;;4856533;28;20240;-76
2021/07/23 05:23:25;;;;;;;16.50;2.37;;;;;;;;;;4838316;28;20195;-74
2021/07/23 05:25:48;;;;;;;13.70;1.97;;;;;;;;;;4838242;28;20194;-74
2021/07/23 05:28:13;;;;;;;22.30;3.07;;;;;;;;;;4855330;28;20204;-75
2021/07/23 05:30:36;;;;;;;16.30;2.27;;;;;;;;;;4855613;28;20260;-74
2021/07/23 05:32:59;;;;;;;12.40;1.80;;;17.90;53.40;;;;;;4856655;28;20194;-80
2021/07/23 05:35:22;;;;;;;24.97;3.40;;;;;;;;;;4841298;28;20344;-74
2021/07/23 05:37:46;;;;;;;16.70;2.30;;;;;;;;;;4838120;28;20199;-74
2021/07/23 05:40:11;;;;;;;33.67;13.03;;;18.20;61.40;;;;;;4853996;28;20951;-74
2021/07/23 05:42:34;;;;;;;22.43;3.33;;;;;;;;;;4855900;28;20240;-76
2021/07/23 05:44:57;;;;;;;46.30;38.63;;;;;;;;;;4857452;28;20758;-74
2021/07/23 05:47:20;;;;;;;16.20;2.17;;;;;;;;;;4838609;28;20199;-81
2021/07/23 05:49:44;;;;;;;22.07;3.03;;;18.60;99.90;;;;;;4838905;28;20290;-76
2021/07/23 05:52:07;;;;;;;34.47;4.33;;;18.70;31.30;;;;;;4856040;28;20182;-78
2021/07/23 05:54:30;;;;;;;18.47;2.40;;;;;;;;;;4857256;28;20197;-74
2021/07/23 05:56:53;;;;;;;27.97;3.57;;;;;;;;;;4856191;28;20602;-74
2021/07/23 05:59:16;;;;;;;29.43;3.83;;;;;;;;;;4856006;28;20200;-74
2021/07/23 06:01:39;;;;;;;21.10;3.23;;;;;;;;;;4859691;28;20241;-74
2021/07/23 06:04:02;;;;;;;22.13;6.73;;;;;;;;;;4875948;28;20201;-75
2021/07/23 06:06:26;;;;;;;40.40;33.80;;;19.40;60.60;;;;;;4874173;28;20287;-76
2021/07/23 06:08:48;;;;;;;32.17;21.43;;;;;;;;;;4874263;28;20197;-75
2021/07/23 06:11:11;;;;;;;30.33;9.70;;;;;;;;;;4875811;28;20251;-74
2021/07/23 06:13:36;;;;;;;32.07;26.23;;;19.80;80.30;;;;;;4858066;28;20281;-74
2021/07/23 06:16:00;;;;;;;45.73;40.80;;;;;;;;;;4871597;28;20196;-79
2021/07/23 06:18:23;;;;;;;546.43;244.17;;;;;;;;;;4873809;28;20194;-74
2021/07/23 06:20:46;;;;;;;439.30;217.30;;;;;;;;;;4875046;28;20181;-74
2021/07/23 06:23:10;;;;;;;579.20;274.00;;;20.20;83.80;;;;;;4874535;28;20186;-73
2021/07/23 06:25:33;;;;;;;16.53;2.20;;;;;;;;;;4874563;28;20679;-73
2021/07/23 06:27:55;;;;;;;15.23;2.00;;;;;;;;;;4871546;28;20186;-74
2021/07/23 06:30:18;;;;;;;29.07;3.83;;;;;;;;;;4854552;28;20293;-73
2021/07/23 06:32:41;;;;;;;12.07;1.67;;;;;;;;;;4857355;28;20196;-75
2021/07/23 06:35:04;;;;;;;26.77;3.47;;;;;;;;;;4874732;28;20190;-74
2021/07/23 06:37:27;;;;;;;20.00;2.67;;;;;;;;;;4867668;28;20252;-74
2021/07/23 06:39:51;;;;;;;21.40;2.83;;;21.20;57.50;;;;;;4873600;28;20188;-73
2021/07/23 06:42:14;;;;;;;31.43;4.00;;;;;;;;;;4873910;28;20199;-74
2021/07/23 06:44:37;;;;;;;16.47;2.27;;;21.40;61.90;;;;;;4868748;28;20743;-74
2021/07/23 06:47:01;;;;;;;14.00;1.93;;;21.60;78.20;;;;;;4874929;28;20196;-74
2021/07/23 06:49:24;;;;;;;18.03;2.43;;;;;;;;;;4872644;28;20682;-74
2021/07/23 06:51:46;;;;;;;18.97;2.57;;;;;;;;;;4868378;28;20249;-74
2021/07/23 06:54:09;;;;;;;26.27;3.50;;;;;;;;;;4874895;28;20241;-74
2021/07/23 06:56:33;;;;;;;20.73;2.77;;;22.40;31.10;;;;;;4875271;28;20585;-74
2021/07/23 06:58:55;;;;;;;18.37;2.47;;;;;;;;;;4856712;28;20188;-73
2021/07/23 07:01:18;;;;;;;37.67;4.80;;;;;;;;;;4870527;28;20278;-74
2021/07/23 07:03:41;;;;;;;17.80;2.37;;;;;;;;;;4877640;28;20593;-75
2021/07/23 07:06:04;;;;;;;27.80;3.67;;;;;;;;;;4878869;28;20282;-74
2021/07/23 07:08:27;;;;;;;31.47;4.10;;;;;;;;;;4878605;28;20188;-73
2021/07/23 07:10:49;;;;;;;16.63;2.27;;;;;;;;;;4861254;28;20197;-73
2021/07/23 07:13:13;;;;;;;25.13;3.20;;;23.20;58.30;;;;;;4875786;28;20260;-73
2021/07/23 07:15:36;;;;;;;12.37;1.70;;;;;;;;;;4879270;28;20537;-74
2021/07/23 07:17:59;;;;;;;18.30;2.43;;;23.70;65.30;;;;;;4878864;28;20205;-74
2021/07/23 07:20:22;;;;;;;18.13;2.43;;;;;;;;;;4877971;28;20195;-76
2021/07/23 07:22:45;;;;;;;19.97;2.60;;;;;;;;;;4878986;28;20190;-73
2021/07/23 07:25:09;;;;;;;27.53;3.43;;;24.20;71.10;;;;;;4877759;28;20208;-73
2021/07/23 07:27:32;;;;;;;21.67;2.80;;;;;;;;;;4860771;28;20199;-74
2021/07/23 07:29:55;;;;;;;18.93;2.50;;;24.60;74.40;;;;;;4876313;28;20234;-73
2021/07/23 07:32:18;;;;;;;30.53;4.17;;;;;;;;;;4878522;28;20184;-74
2021/07/23 07:34:41;;;;;;;16.00;2.53;;;;;;;;;;4875829;28;20201;-74
2021/07/23 07:37:04;;;;;;;30.57;5.17;;;;;;;;;;4860591;28;20256;-74
2021/07/23 07:39:26;;;;;;;22.80;3.00;;;;;;;;;;4878075;28;20184;-75
2021/07/23 07:41:49;;;;;;;21.10;2.77;;;;;;;;;;4878504;28;20237;-73
2021/07/23 07:44:12;;;;;;;29.50;3.63;;;;;;;;;;4878413;28;20739;-74
2021/07/23 07:46:36;;;;;;;19.37;2.57;;;25.40;64.70;;;;;;4876894;28;20220;-74
2021/07/23 07:48:58;;;;;;;16.53;2.20;;;;;;;;;;4859990;28;20193;-74
2021/07/23 07:51:21;;;;;;;15.23;2.03;;;;;;;;;;4877193;28;20261;-75
2021/07/23 07:53:44;;;;;;;17.43;2.30;;;;;;;;;;4878179;28;20249;-75
2021/07/23 07:56:07;;;;;;;32.10;4.10;;;25.50;67.20;;;;;;4877100;28;20189;-74
2021/07/23 07:58:30;;;;;;;39.13;4.97;;;;;;;;;;4892937;28;20590;-74
2021/07/23 08:00:53;;;;;;;19.80;2.60;;;;;;;;;;4874256;28;20452;-74
2021/07/23 08:03:17;;;;;;;25.50;3.37;;;25.70;70.60;;;;;;4877349;28;20228;-74
2021/07/23 08:05:40;;;;;;;15.17;2.00;;;;;;;;;;4878479;28;20287;-80
2021/07/23 08:08:04;;;;;;;17.17;2.30;;;;;;;;;;4876703;28;20256;-76
2021/07/23 08:10:27;;;;;;;14.63;1.87;;;26.20;73.50;;;;;;4877506;28;20237;-75
2021/07/23 08:12:49;;;;;;;14.53;2.00;;;;;;;;;;4878481;28;20185;-74
2021/07/23 08:15:16;;;;;;;27.10;3.43;;;26.60;72.30;;;;;;4859137;28;20198;-74
2021/07/23 08:17:39;;;;;;;27.27;3.57;;;;;;;;;;4877028;28;20214;-74
2021/07/23 08:20:03;;;;;;;16.67;2.10;;;26.90;73.90;;;;;;4877261;28;20182;-76
2021/07/23 08:22:26;;;;;;;21.23;2.87;;;;;;;;;;4859909;28;20193;-75
2021/07/23 08:24:49;;;;;;;22.37;2.90;;;;;;;;;;4878232;28;20183;-74
2021/07/23 08:27:13;;;;;;;32.57;4.20;;;;;;;;;;4877303;28;20698;-74
2021/07/23 08:29:36;;;;;;;23.63;3.10;;;;;;;;;;4876250;28;20180;-74
2021/07/23 08:32:06;;;;;;;25.03;3.50;;;27.60;76.00;;;;;;4877672;28;20594;-75
2021/07/23 08:34:29;;;;;;;23.13;3.10;;;;;;;;;;4859705;28;20248;-74
2021/07/23 08:36:52;;;;;;;17.97;2.57;;;27.80;76.90;;;;;;4877707;28;20233;-74
2021/07/23 08:39:15;;;;;;;40.77;6.80;;;;;;;;;;4875629;28;20188;-74
2021/07/23 08:41:38;;;;;;;27.20;3.87;;;;;;;;;;4859623;28;20258;-74
2021/07/23 08:44:01;;;;;;;17.70;2.50;;;;;;;;;;4877291;28;20193;-74
2021/07/23 08:46:23;;;;;;;19.03;2.70;;;;;;;;;;4877276;28;20630;-74
2021/07/23 08:48:46;;;;;;;23.53;3.43;;;;;;;;;;4876621;28;20185;-73
2021/07/23 08:51:10;;;;;;;33.50;5.20;;;27.70;80.20;;;;;;4876424;28;20187;-74
2021/07/23 08:53:34;;;;;;;20.37;2.87;;;27.70;81.30;;;;;;4863291;28;20243;-76
2021/07/23 08:55:57;;;;;;;19.50;2.57;;;;;;;;;;4896598;28;20236;-74
2021/07/23 08:58:20;;;;;;;21.37;2.73;;;;;;;;;;4878338;28;20187;-75
2021/07/23 09:00:43;;;;;;;137.33;16.83;;;;;;;;;;4874949;28;20467;-75
2021/07/23 09:03:06;;;;;;;26.63;3.57;;;27.70;81.80;;;;;;4880089;28;20234;-74
2021/07/23 09:05:30;;;;;;;26.97;3.43;;;27.60;83.60;;;;;;4859081;28;20196;-73
2021/07/23 09:07:53;;;;;;;22.97;4.57;;;;;;;;;;4877079;28;20718;-73
2021/07/23 09:10:24;;;;;;;57.10;45.80;;;27.90;82.70;;;;;;4875762;28;20189;-75
2021/07/23 09:12:50;;;;;;;333.20;268.27;;;28.40;83.80;;;;;;4857637;28;20201;-74
2021/07/23 09:15:20;;;;;;;33.63;12.40;;;28.80;83.70;;;;;;4876519;28;20189;-74
2021/07/23 09:17:43;;;;;;;14.73;2.00;;;;;;;;;;4858528;28;20287;-79
2021/07/23 09:20:07;;;;;;;29.00;3.70;;;30.50;83.80;;;;;;4875636;28;20536;-75
2021/07/23 09:22:43;;;;;;;28.83;3.90;;;30.80;85.80;;;;;;4875425;28;20257;-74
2021/07/23 09:25:07;;;;;;;25.03;3.17;;;31.50;87.40;;;;;;4876897;28;20187;-74
2021/07/23 09:27:34;;;;;;;19.87;2.73;;;32.10;88.20;;;;;;4875314;28;20234;-75
2021/07/23 09:29:57;;;;;;;19.70;2.60;;;;;;;;;;4875782;28;20207;-75
2021/07/23 09:32:20;;;;;;;30.20;6.37;;;;;;;;;;4876211;28;20213;-75
2021/07/23 09:34:43;;;;;;;13.17;1.80;;;;;;;;;;4875842;28;20253;-77
2021/07/23 09:37:09;;;;;;;25.10;3.30;;;31.90;89.50;;;;;;4876351;28;20192;-75
2021/07/23 09:39:32;;;;;;;15.37;2.10;;;;;;;;;;4874842;28;20196;-82
2021/07/23 09:42:01;;;;;;;16.87;2.27;;;31.10;89.30;;;;;;4876625;28;20240;-75
2021/07/23 09:44:26;;;;;;;23.03;3.07;;;30.80;89.50;;;;;;4875467;28;20189;-76
2021/07/23 09:46:49;;;;;;;18.67;2.43;;;;;;;;;;4876205;28;20217;-75
2021/07/23 09:49:30;;;;;;;28.37;3.63;;;30.10;88.40;;;;;;4875217;28;20197;-75
2021/07/23 09:51:55;;;;;;;13.73;1.90;;;30.50;88.30;;;;;;4876280;28;20187;-73
2021/07/23 09:54:19;;;;;;;23.93;3.17;;;;;;;;;;4855329;28;20230;-77
2021/07/23 09:56:41;;;;;;;21.87;2.93;;;;;;;;;;4855829;28;20779;-76
2021/07/23 09:59:12;;;;;;;36.57;13.60;;;31.50;87.70;;;;;;4855773;28;20259;-76
2021/07/23 10:01:41;;;;;;;17.02;3.00;;;33.10;88.50;;;;;;4858631;28;20645;-78
2021/07/23 10:04:10;;;;;;;16.95;2.35;;;34.90;89.10;;;;;;4875536;28;20201;-75
2021/07/23 10:06:36;;;;;;;46.97;42.80;;;35.60;91.10;;;;;;4874890;28;20294;-78
2021/07/23 10:09:06;;;;;;;19.20;3.60;;;35.60;91.20;;;;;;4875090;28;20181;-75
2021/07/23 10:11:29;;;;;;;25.95;22.45;;;34.80;91.50;;;;;;4875997;28;20238;-80
2021/07/23 10:13:54;;;;;;;81.45;76.05;;;33.90;91.60;;;;;;4876288;28;20197;-76
2021/07/23 10:16:17;;;;;;;109.32;100.38;;;33.00;99.90;;;;;;4857857;28;20663;-76
2021/07/23 10:18:41;;;;;;;49.75;6.60;;;32.20;99.90;;;;;;4874486;28;20181;-76
2021/07/23 10:21:04;;;;;;;16.05;2.17;;;32.90;99.90;;;;;;4875617;28;20181;-77
2021/07/23 10:23:29;;;;;;;15.30;2.17;;;33.30;99.90;;;;;;4875775;28;20231;-75
2021/07/23 10:25:54;;;;;;;15.90;2.25;;;34.10;91.60;;;;;;4874047;28;20598;-74
2021/07/23 10:28:53;;;;;;;26.90;3.53;;;35.10;92.10;;;;;;4874407;28;20189;-76
2021/07/23 10:31:47;;;;;;;26.73;3.53;;;37.90;92.70;;;;;;4875396;28;20173;-76
2021/07/23 10:34:11;;;;;;;25.95;3.40;;;40.60;99.90;;;;;;4874515;28;20185;-77
2021/07/23 10:36:41;;;;;;;278.05;261.58;;;42.40;99.90;;;;;;4875329;28;20795;-76
2021/07/23 10:39:13;;;;;;;498.65;443.58;;;42.80;99.90;;;;;;4873618;28;20181;-77
2021/07/23 10:41:37;;;;;;;532.05;475.58;;;43.80;99.90;;;;;;4875261;28;20241;-77
2021/07/23 10:44:00;;;;;;;551.38;494.67;;;;;;;;;;4857722;28;20228;-76
2021/07/23 10:46:55;;;;;;;584.72;526.78;;;45.60;99.90;;;;;;4857366;28;20237;-81
2021/07/23 10:49:48;;;;;;;615.85;555.05;;;46.30;99.90;;;;;;4873676;28;20189;-76
2021/07/23 10:52:27;;;;;;;613.08;553.42;;;47.30;99.90;;;;;;4875169;28;20169;-76
2021/07/23 10:55:21;;;;;;;620.15;560.42;;;48.30;99.90;;;;;;4890199;28;20180;-76
2021/07/23 10:57:44;;;;;;;588.47;531.53;;;;;;;;;;4875824;28;20232;-78
2021/07/23 11:00:08;;;;;;;580.78;521.65;;;45.40;99.90;;;;;;4875119;28;20197;-76
2021/07/23 11:02:48;;;;;;;625.17;565.97;;;47.40;99.90;;;;;;4878532;28;20279;-76
2021/07/23 11:05:19;;;;;;;618.85;558.30;;;46.80;99.90;;;;;;4857194;28;20212;-76
2021/07/23 11:07:43;;;;;;;596.42;537.53;;;;;;;;;;4875734;28;20649;-79
2021/07/23 11:10:08;;;;;;;547.47;491.65;;;46.50;99.90;;;;;;4874193;28;20189;-77
2021/07/23 11:12:40;;;;;;;572.97;512.63;;;44.50;99.90;;;;;;4874145;28;20602;-82
2021/07/23 11:15:05;;;;;;;520.58;466.40;;;44.40;99.90;;;;;;4875424;28;20197;-81
2021/07/23 11:17:29;;;;;;;506.67;452.23;;;42.40;99.90;;;;;;4875224;28;20217;-77
2021/07/23 11:19:55;;;;;;;501.95;447.23;;;41.00;99.90;;;;;;4874659;28;20193;-81
2021/07/23 11:22:22;;;;;;;502.73;441.65;;;39.70;99.90;;;;;;4856234;28;20194;-83
2021/07/23 11:24:47;;;;;;;489.08;427.77;;;38.00;99.90;;;;;;4875103;28;20186;-79
2021/07/23 11:27:10;;;;;;;495.42;413.52;;;;;;;;;;4875414;28;20243;-76
2021/07/23 11:29:36;;;;;;;482.58;401.27;;;37.70;99.90;;;;;;4874450;28;20185;-76
2021/07/23 11:32:04;;;;;;;480.85;385.70;;;35.30;99.90;;;;;;4874972;28;20231;-76
2021/07/23 11:34:27;;;;;;;473.08;378.23;;;34.40;99.90;;;;;;4856154;28;20206;-76
2021/07/23 11:36:51;;;;;;;470.73;370.73;;;33.90;99.90;;;;;;4874350;28;20740;-75
2021/07/23 11:39:15;;;;;;;468.08;364.95;;;33.80;99.90;;;;;;4856175;28;20193;-76
2021/07/23 11:41:38;;;;;;;456.38;363.20;;;;;;;;;;4874611;28;20181;-77
2021/07/23 11:44:11;;;;;;;429.17;359.52;;;33.50;99.90;;;;;;4873970;28;20547;-76
2021/07/23 11:46:34;;;;;;;428.33;351.52;;;;;;;;;;4874384;28;20607;-75
2021/07/23 11:48:56;;;;;;;409.67;353.08;;;;;;;;;;4874120;28;20185;-76
2021/07/23 11:51:19;;;;;;;409.60;354.63;;;;;;;;;;4878355;28;20189;-75
2021/07/23 11:53:42;;;;;;;393.10;349.90;;;;;;;;;;4877898;28;20266;-76
2021/07/23 11:56:06;;;;;;;401.20;357.27;;;32.80;99.90;;;;;;4877343;28;20181;-74
2021/07/23 11:58:30;;;;;;;439.40;363.23;;;33.40;99.90;;;;;;4859232;28;20221;-74
2021/07/23 12:00:53;;;;;;;437.33;354.40;;;;;;;;;;4875718;28;20258;-74
2021/07/23 12:03:16;;;;;;;443.65;360.55;;;;;;;;;;4876561;28;20213;-75
2021/07/23 12:05:38;;;;;;;463.55;397.85;;;;;;;;;;4859156;28;20267;-76
2021/07/23 12:08:02;;;;;;;464.35;414.98;;;38.80;99.90;;;;;;4878387;28;20248;-74
2021/07/23 12:10:25;;;;;;;452.55;404.67;;;;;;;;;;4877385;28;20193;-75
2021/07/23 12:12:49;;;;;;;469.40;418.45;;;38.90;99.90;;;;;;4876599;28;20212;-76
2021/07/23 12:15:14;;;;;;;518.33;452.33;;;37.60;99.90;;;;;;4877791;28;20178;-76
2021/07/23 12:17:37;;;;;;;510.48;441.40;;;39.40;99.90;;;;;;4859089;28;20757;-75
2021/07/23 12:20:00;;;;;;;510.65;445.92;;;;;;;;;;4877080;28;20189;-75
2021/07/23 12:22:23;;;;;;;508.08;450.15;;;;;;;;;;4877871;28;20255;-79
2021/07/23 12:24:46;;;;;;;500.70;440.67;;;;;;;;;;4877737;28;20185;-78
2021/07/23 12:27:16;;;;;;;510.20;447.38;;;39.10;99.90;;;;;;4876659;28;20243;-76
2021/07/23 12:29:40;;;;;;;516.50;448.67;;;39.50;99.90;;;;;;4858525;28;20264;-77
2021/07/23 12:32:12;;;;;;;512.97;456.38;;;39.70;99.90;;;;;;4877700;28;20189;-76
2021/07/23 12:34:35;;;;;;;507.92;444.27;;;38.80;99.90;;;;;;4877830;28;20230;-76
2021/07/23 12:36:58;;;;;;;509.55;437.90;;;;;;;;;;4877220;28;20181;-74
2021/07/23 12:39:22;;;;;;;518.50;438.98;;;;;;;;;;4874580;28;20189;-76
2021/07/23 12:41:46;;;;;;;509.20;426.55;;;;;;;;;;4859594;28;20205;-76
2021/07/23 12:44:10;;;;;;;517.05;425.67;;;35.10;99.90;;;;;;4877277;28;20672;-75
2021/07/23 12:46:36;;;;;;;499.48;412.23;;;34.40;99.90;;;;;;4877464;28;20184;-76
2021/07/23 12:49:09;;;;;;;500.73;411.58;;;33.50;99.90;;;;;;4876961;28;20215;-74
2021/07/23 12:51:32;;;;;;;529.92;425.15;;;;;;;;;;4861087;28;20193;-76
2021/07/23 12:53:58;;;;;;;433.88;382.65;;;32.20;99.90;;;;;;4866345;28;20259;-76
2021/07/23 12:56:30;;;;;;;424.30;375.27;;;32.20;99.90;;;;;;4895312;28;20657;-76
2021/07/23 12:58:53;;;;;;;420.65;369.85;;;;;;;;;;4895359;28;20204;-75
2021/07/23 13:01:17;;;;;;;413.27;363.33;;;32.50;99.90;;;;;;4892835;28;20550;-75
2021/07/23 13:03:45;;;;;;;416.23;356.10;;;33.10;99.90;;;;;;4876520;28;20248;-75
2021/07/23 13:06:09;;;;;;;440.88;357.42;;;;;;;;;;4858420;28;20194;-75
2021/07/23 13:08:32;;;;;;;475.42;363.42;;;;;;;;;;4876153;28;20556;-76
2021/07/23 13:10:55;;;;;;;441.92;360.73;;;;;;;;;;4875865;28;20255;-75
2021/07/23 13:13:17;;;;;;;448.67;368.40;;;;;;;;;;4876581;28;20194;-76
2021/07/23 13:15:40;;;;;;;456.35;358.35;;;;;;;;;;4876757;28;20188;-76
2021/07/23 13:18:03;;;;;;;483.52;365.23;;;;;;;;;;4876498;28;20217;-76
2021/07/23 13:20:27;;;;;;;498.73;369.08;;;31.60;99.90;;;;;;4875426;28;20185;-75
2021/07/23 13:22:49;;;;;;;512.30;372.13;;;;;;;;;;4877307;28;20207;-75
2021/07/23 13:25:12;;;;;;;537.93;407.13;;;30.80;99.90;;;;;;4876687;28;20189;-76
2021/07/23 13:27:35;;;;;;;545.70;421.13;;;;;;;;;;4876738;28;20189;-77
2021/07/23 13:29:58;;;;;;;407.65;350.92;;;;;;;;;;4875484;28;20635;-75